sensor_id;sensor_type;location;lat;lon;timestamp;P1;durP1;ratioP1;P2;durP2;ratioP2
67508;SDS011;54354;44.724;11.284;2023-07-29T00:01:41;5.90;;;3.17;;
67508;SDS011;54354;44.724;11.284;2023-07-29T00:04:07;4.97;;;2.90;;
67508;SDS011;54354;44.724;11.284;2023-07-29T00:06:34;5.93;;;2.92;;
67508;SDS011;54354;44.724;11.284;2023-07-29T00:09:00;6.18;;;3.05;;
67508;SDS011;54354;44.724;11.284;2023-07-29T00:11:26;9.55;;;3.35;;
67508;SDS011;54354;44.724;11.284;2023-07-29T00:13:51;5.72;;;2.92;;
67508;SDS011;54354;44.724;11.284;2023-07-29T00:16:18;4.97;;;2.95;;
67508;SDS011;54354;44.724;11.284;2023-07-29T00:18:47;6.70;;;3.00;;
67508;SDS011;54354;44.724;11.284;2023-07-29T00:21:13;6.35;;;3.00;;
67508;SDS011;54354;44.724;11.284;2023-07-29T00:23:38;6.78;;;3.00;;
67508;SDS011;54354;44.724;11.284;2023-07-29T00:26:03;5.90;;;3.17;;
67508;SDS011;54354;44.724;11.284;2023-07-29T00:28:29;6.18;;;3.50;;
67508;SDS011;54354;44.724;11.284;2023-07-29T00:30:55;9.10;;;4.03;;
67508;SDS011;54354;44.724;11.284;2023-07-29T00:33:20;8.20;;;3.90;;
67508;SDS011;54354;44.724;11.284;2023-07-29T00:35:46;4.57;;;3.20;;
67508;SDS011;54354;44.724;11.284;2023-07-29T00:38:11;7.88;;;3.10;;
67508;SDS011;54354;44.724;11.284;2023-07-29T00:40:37;7.85;;;3.33;;
67508;SDS011;54354;44.724;11.284;2023-07-29T00:43:03;7.50;;;3.08;;
67508;SDS011;54354;44.724;11.284;2023-07-29T00:45:29;6.88;;;3.10;;
67508;SDS011;54354;44.724;11.284;2023-07-29T00:47:55;7.28;;;3.53;;
67508;SDS011;54354;44.724;11.284;2023-07-29T00:50:21;7.60;;;3.28;;
67508;SDS011;54354;44.724;11.284;2023-07-29T00:52:48;8.65;;;3.30;;
67508;SDS011;54354;44.724;11.284;2023-07-29T00:55:14;7.32;;;3.33;;
67508;SDS011;54354;44.724;11.284;2023-07-29T00:57:40;8.60;;;3.45;;
67508;SDS011;54354;44.724;11.284;2023-07-29T01:00:07;8.63;;;4.60;;
67508;SDS011;54354;44.724;11.284;2023-07-29T01:02:34;8.80;;;4.13;;
67508;SDS011;54354;44.724;11.284;2023-07-29T01:05:00;6.45;;;3.42;;
67508;SDS011;54354;44.724;11.284;2023-07-29T01:10:07;5.10;;;3.20;;
67508;SDS011;54354;44.724;11.284;2023-07-29T01:12:47;6.68;;;3.95;;
67508;SDS011;54354;44.724;11.284;2023-07-29T01:15:36;7.43;;;3.55;;
67508;SDS011;54354;44.724;11.284;2023-07-29T01:18:08;8.77;;;4.03;;
67508;SDS011;54354;44.724;11.284;2023-07-29T01:20:40;6.30;;;3.20;;
67508;SDS011;54354;44.724;11.284;2023-07-29T01:23:07;6.20;;;3.30;;
67508;SDS011;54354;44.724;11.284;2023-07-29T01:25:34;7.50;;;3.53;;
67508;SDS011;54354;44.724;11.284;2023-07-29T01:27:59;5.53;;;3.45;;
67508;SDS011;54354;44.724;11.284;2023-07-29T01:30:26;8.02;;;3.55;;
67508;SDS011;54354;44.724;11.284;2023-07-29T01:35:44;8.77;;;3.70;;
67508;SDS011;54354;44.724;11.284;2023-07-29T01:38:14;7.47;;;3.22;;
67508;SDS011;54354;44.724;11.284;2023-07-29T01:40:43;7.10;;;3.80;;
67508;SDS011;54354;44.724;11.284;2023-07-29T01:43:10;4.50;;;3.20;;
67508;SDS011;54354;44.724;11.284;2023-07-29T01:45:35;8.43;;;4.30;;
67508;SDS011;54354;44.724;11.284;2023-07-29T01:48:06;9.25;;;5.70;;
67508;SDS011;54354;44.724;11.284;2023-07-29T01:50:32;5.72;;;4.45;;
67508;SDS011;54354;44.724;11.284;2023-07-29T01:52:58;9.63;;;4.60;;
67508;SDS011;54354;44.724;11.284;2023-07-29T01:55:24;7.85;;;4.40;;
67508;SDS011;54354;44.724;11.284;2023-07-29T01:57:50;11.20;;;4.40;;
67508;SDS011;54354;44.724;11.284;2023-07-29T02:00:17;7.95;;;4.28;;
67508;SDS011;54354;44.724;11.284;2023-07-29T02:02:44;7.28;;;3.80;;
67508;SDS011;54354;44.724;11.284;2023-07-29T02:05:10;6.10;;;3.50;;
67508;SDS011;54354;44.724;11.284;2023-07-29T02:07:36;5.47;;;3.95;;
67508;SDS011;54354;44.724;11.284;2023-07-29T02:10:01;5.63;;;3.63;;
67508;SDS011;54354;44.724;11.284;2023-07-29T02:12:27;6.13;;;4.05;;
67508;SDS011;54354;44.724;11.284;2023-07-29T02:14:52;5.32;;;3.88;;
67508;SDS011;54354;44.724;11.284;2023-07-29T02:17:18;9.93;;;3.80;;
67508;SDS011;54354;44.724;11.284;2023-07-29T02:19:44;8.77;;;4.25;;
67508;SDS011;54354;44.724;11.284;2023-07-29T02:22:12;6.70;;;3.53;;
67508;SDS011;54354;44.724;11.284;2023-07-29T02:24:42;5.38;;;3.80;;
67508;SDS011;54354;44.724;11.284;2023-07-29T02:27:07;7.55;;;3.80;;
67508;SDS011;54354;44.724;11.284;2023-07-29T02:29:33;7.35;;;3.78;;
67508;SDS011;54354;44.724;11.284;2023-07-29T02:32:02;5.13;;;3.88;;
67508;SDS011;54354;44.724;11.284;2023-07-29T02:34:28;8.52;;;4.13;;
67508;SDS011;54354;44.724;11.284;2023-07-29T02:36:54;6.40;;;4.60;;
67508;SDS011;54354;44.724;11.284;2023-07-29T02:39:20;7.95;;;4.30;;
67508;SDS011;54354;44.724;11.284;2023-07-29T02:41:46;6.88;;;4.10;;
67508;SDS011;54354;44.724;11.284;2023-07-29T02:44:11;7.20;;;3.88;;
67508;SDS011;54354;44.724;11.284;2023-07-29T02:46:37;8.55;;;3.85;;
67508;SDS011;54354;44.724;11.284;2023-07-29T02:49:03;8.75;;;4.05;;
67508;SDS011;54354;44.724;11.284;2023-07-29T02:51:29;5.32;;;3.97;;
67508;SDS011;54354;44.724;11.284;2023-07-29T02:53:55;8.98;;;4.00;;
67508;SDS011;54354;44.724;11.284;2023-07-29T02:56:21;7.82;;;3.78;;
67508;SDS011;54354;44.724;11.284;2023-07-29T02:58:46;6.30;;;3.78;;
67508;SDS011;54354;44.724;11.284;2023-07-29T03:01:12;7.85;;;4.13;;
67508;SDS011;54354;44.724;11.284;2023-07-29T03:03:37;6.53;;;4.40;;
67508;SDS011;54354;44.724;11.284;2023-07-29T03:06:04;8.25;;;4.45;;
67508;SDS011;54354;44.724;11.284;2023-07-29T03:08:31;7.40;;;3.97;;
67508;SDS011;54354;44.724;11.284;2023-07-29T03:10:57;7.25;;;4.25;;
67508;SDS011;54354;44.724;11.284;2023-07-29T03:13:23;5.20;;;4.10;;
67508;SDS011;54354;44.724;11.284;2023-07-29T03:15:48;9.10;;;4.22;;
67508;SDS011;54354;44.724;11.284;2023-07-29T03:18:14;6.88;;;4.28;;
67508;SDS011;54354;44.724;11.284;2023-07-29T03:20:41;8.20;;;4.25;;
67508;SDS011;54354;44.724;11.284;2023-07-29T03:23:06;7.85;;;4.00;;
67508;SDS011;54354;44.724;11.284;2023-07-29T03:25:32;5.53;;;4.20;;
67508;SDS011;54354;44.724;11.284;2023-07-29T03:27:58;7.35;;;3.95;;
67508;SDS011;54354;44.724;11.284;2023-07-29T03:30:23;7.75;;;4.30;;
67508;SDS011;54354;44.724;11.284;2023-07-29T03:32:51;6.60;;;4.05;;
67508;SDS011;54354;44.724;11.284;2023-07-29T03:35:16;9.57;;;3.92;;
67508;SDS011;54354;44.724;11.284;2023-07-29T03:37:42;6.60;;;4.03;;
67508;SDS011;54354;44.724;11.284;2023-07-29T03:40:07;7.85;;;4.60;;
67508;SDS011;54354;44.724;11.284;2023-07-29T03:42:36;7.90;;;4.15;;
67508;SDS011;54354;44.724;11.284;2023-07-29T03:45:02;8.45;;;4.20;;
67508;SDS011;54354;44.724;11.284;2023-07-29T03:47:27;7.63;;;3.90;;
67508;SDS011;54354;44.724;11.284;2023-07-29T03:49:58;4.68;;;3.85;;
67508;SDS011;54354;44.724;11.284;2023-07-29T03:52:23;6.35;;;4.10;;
67508;SDS011;54354;44.724;11.284;2023-07-29T03:54:49;4.85;;;3.92;;
67508;SDS011;54354;44.724;11.284;2023-07-29T03:57:15;5.15;;;3.70;;
67508;SDS011;54354;44.724;11.284;2023-07-29T03:59:40;7.30;;;4.00;;
67508;SDS011;54354;44.724;11.284;2023-07-29T04:02:06;6.05;;;3.63;;
67508;SDS011;54354;44.724;11.284;2023-07-29T04:04:31;8.23;;;4.53;;
67508;SDS011;54354;44.724;11.284;2023-07-29T04:06:57;6.43;;;4.32;;
67508;SDS011;54354;44.724;11.284;2023-07-29T04:09:23;8.02;;;3.97;;
67508;SDS011;54354;44.724;11.284;2023-07-29T04:11:49;6.18;;;3.85;;
67508;SDS011;54354;44.724;11.284;2023-07-29T04:14:14;8.65;;;3.55;;
67508;SDS011;54354;44.724;11.284;2023-07-29T04:16:40;9.23;;;4.15;;
67508;SDS011;54354;44.724;11.284;2023-07-29T04:19:05;7.80;;;3.55;;
67508;SDS011;54354;44.724;11.284;2023-07-29T04:21:31;7.13;;;4.07;;
67508;SDS011;54354;44.724;11.284;2023-07-29T04:23:56;5.78;;;3.70;;
67508;SDS011;54354;44.724;11.284;2023-07-29T04:26:22;8.38;;;3.90;;
67508;SDS011;54354;44.724;11.284;2023-07-29T04:28:48;11.25;;;4.35;;
67508;SDS011;54354;44.724;11.284;2023-07-29T04:31:13;10.50;;;4.30;;
67508;SDS011;54354;44.724;11.284;2023-07-29T04:33:38;10.25;;;3.72;;
67508;SDS011;54354;44.724;11.284;2023-07-29T04:36:04;6.05;;;4.15;;
67508;SDS011;54354;44.724;11.284;2023-07-29T04:38:31;15.88;;;4.43;;
67508;SDS011;54354;44.724;11.284;2023-07-29T04:40:58;8.52;;;4.35;;
67508;SDS011;54354;44.724;11.284;2023-07-29T04:43:35;6.35;;;4.20;;
67508;SDS011;54354;44.724;11.284;2023-07-29T04:46:00;8.50;;;4.28;;
67508;SDS011;54354;44.724;11.284;2023-07-29T04:48:26;7.75;;;3.90;;
67508;SDS011;54354;44.724;11.284;2023-07-29T04:50:52;8.25;;;4.10;;
67508;SDS011;54354;44.724;11.284;2023-07-29T04:53:17;11.32;;;4.03;;
67508;SDS011;54354;44.724;11.284;2023-07-29T04:55:43;4.70;;;3.88;;
67508;SDS011;54354;44.724;11.284;2023-07-29T04:58:09;5.20;;;4.13;;
67508;SDS011;54354;44.724;11.284;2023-07-29T05:00:35;4.43;;;3.90;;
67508;SDS011;54354;44.724;11.284;2023-07-29T05:03:02;4.93;;;3.63;;
67508;SDS011;54354;44.724;11.284;2023-07-29T05:05:28;5.13;;;4.30;;
67508;SDS011;54354;44.724;11.284;2023-07-29T05:07:53;6.05;;;4.50;;
67508;SDS011;54354;44.724;11.284;2023-07-29T05:10:19;7.93;;;4.65;;
67508;SDS011;54354;44.724;11.284;2023-07-29T05:12:45;7.03;;;4.32;;
67508;SDS011;54354;44.724;11.284;2023-07-29T05:15:11;7.55;;;4.35;;
67508;SDS011;54354;44.724;11.284;2023-07-29T05:17:36;6.05;;;3.97;;
67508;SDS011;54354;44.724;11.284;2023-07-29T05:20:02;6.82;;;4.20;;
67508;SDS011;54354;44.724;11.284;2023-07-29T05:22:28;7.35;;;4.10;;
67508;SDS011;54354;44.724;11.284;2023-07-29T05:24:53;6.28;;;3.78;;
67508;SDS011;54354;44.724;11.284;2023-07-29T05:27:19;5.95;;;3.95;;
67508;SDS011;54354;44.724;11.284;2023-07-29T05:29:44;7.90;;;4.03;;
67508;SDS011;54354;44.724;11.284;2023-07-29T05:32:10;7.72;;;3.75;;
67508;SDS011;54354;44.724;11.284;2023-07-29T05:34:35;7.05;;;3.85;;
67508;SDS011;54354;44.724;11.284;2023-07-29T05:37:01;8.25;;;4.38;;
67508;SDS011;54354;44.724;11.284;2023-07-29T05:39:26;7.63;;;4.05;;
67508;SDS011;54354;44.724;11.284;2023-07-29T05:41:52;9.75;;;4.07;;
67508;SDS011;54354;44.724;11.284;2023-07-29T05:44:18;9.27;;;3.90;;
67508;SDS011;54354;44.724;11.284;2023-07-29T05:46:43;10.15;;;4.05;;
67508;SDS011;54354;44.724;11.284;2023-07-29T05:49:09;10.45;;;3.90;;
67508;SDS011;54354;44.724;11.284;2023-07-29T05:51:35;7.95;;;3.92;;
67508;SDS011;54354;44.724;11.284;2023-07-29T05:54:00;6.53;;;3.90;;
67508;SDS011;54354;44.724;11.284;2023-07-29T05:56:26;11.65;;;3.80;;
67508;SDS011;54354;44.724;11.284;2023-07-29T05:58:51;4.57;;;3.40;;
67508;SDS011;54354;44.724;11.284;2023-07-29T06:01:17;7.65;;;5.00;;
67508;SDS011;54354;44.724;11.284;2023-07-29T06:03:46;8.27;;;3.67;;
67508;SDS011;54354;44.724;11.284;2023-07-29T06:06:12;7.90;;;3.40;;
67508;SDS011;54354;44.724;11.284;2023-07-29T06:08:37;6.80;;;3.35;;
67508;SDS011;54354;44.724;11.284;2023-07-29T06:11:03;6.38;;;3.40;;
67508;SDS011;54354;44.724;11.284;2023-07-29T06:13:31;5.13;;;3.30;;
67508;SDS011;54354;44.724;11.284;2023-07-29T06:15:57;7.60;;;3.72;;
67508;SDS011;54354;44.724;11.284;2023-07-29T06:18:24;10.13;;;3.63;;
67508;SDS011;54354;44.724;11.284;2023-07-29T06:20:50;6.68;;;3.13;;
67508;SDS011;54354;44.724;11.284;2023-07-29T06:23:16;8.23;;;3.40;;
67508;SDS011;54354;44.724;11.284;2023-07-29T06:25:41;8.27;;;3.20;;
67508;SDS011;54354;44.724;11.284;2023-07-29T06:28:08;5.40;;;2.88;;
67508;SDS011;54354;44.724;11.284;2023-07-29T06:30:35;10.00;;;3.17;;
67508;SDS011;54354;44.724;11.284;2023-07-29T06:33:00;5.53;;;3.15;;
67508;SDS011;54354;44.724;11.284;2023-07-29T06:35:28;9.35;;;3.33;;
67508;SDS011;54354;44.724;11.284;2023-07-29T06:37:53;6.78;;;2.63;;
67508;SDS011;54354;44.724;11.284;2023-07-29T06:40:19;6.32;;;3.00;;
67508;SDS011;54354;44.724;11.284;2023-07-29T06:42:45;6.10;;;2.85;;
67508;SDS011;54354;44.724;11.284;2023-07-29T06:45:10;6.00;;;3.80;;
67508;SDS011;54354;44.724;11.284;2023-07-29T06:47:37;5.13;;;3.00;;
67508;SDS011;54354;44.724;11.284;2023-07-29T06:50:02;6.00;;;3.08;;
67508;SDS011;54354;44.724;11.284;2023-07-29T06:52:28;6.10;;;2.92;;
67508;SDS011;54354;44.724;11.284;2023-07-29T06:54:54;3.30;;;3.00;;
67508;SDS011;54354;44.724;11.284;2023-07-29T06:57:22;4.72;;;2.97;;
67508;SDS011;54354;44.724;11.284;2023-07-29T06:59:48;5.78;;;3.17;;
67508;SDS011;54354;44.724;11.284;2023-07-29T07:02:13;7.20;;;3.67;;
67508;SDS011;54354;44.724;11.284;2023-07-29T07:04:39;8.88;;;3.13;;
67508;SDS011;54354;44.724;11.284;2023-07-29T07:07:05;8.70;;;3.63;;
67508;SDS011;54354;44.724;11.284;2023-07-29T07:09:31;6.28;;;3.05;;
67508;SDS011;54354;44.724;11.284;2023-07-29T07:11:57;5.38;;;2.40;;
67508;SDS011;54354;44.724;11.284;2023-07-29T07:14:23;5.28;;;3.30;;
67508;SDS011;54354;44.724;11.284;2023-07-29T07:16:54;3.90;;;2.88;;
67508;SDS011;54354;44.724;11.284;2023-07-29T07:19:20;5.38;;;2.78;;
67508;SDS011;54354;44.724;11.284;2023-07-29T07:21:45;6.47;;;2.58;;
67508;SDS011;54354;44.724;11.284;2023-07-29T07:24:11;4.85;;;2.60;;
67508;SDS011;54354;44.724;11.284;2023-07-29T07:26:36;3.33;;;2.13;;
67508;SDS011;54354;44.724;11.284;2023-07-29T07:29:02;6.82;;;2.10;;
67508;SDS011;54354;44.724;11.284;2023-07-29T07:31:27;3.97;;;2.72;;
67508;SDS011;54354;44.724;11.284;2023-07-29T07:33:53;4.35;;;3.20;;
67508;SDS011;54354;44.724;11.284;2023-07-29T07:36:18;6.25;;;2.33;;
67508;SDS011;54354;44.724;11.284;2023-07-29T07:38:44;3.60;;;2.83;;
67508;SDS011;54354;44.724;11.284;2023-07-29T07:41:09;8.07;;;3.20;;
67508;SDS011;54354;44.724;11.284;2023-07-29T07:43:35;4.70;;;2.65;;
67508;SDS011;54354;44.724;11.284;2023-07-29T07:46:01;4.15;;;3.00;;
67508;SDS011;54354;44.724;11.284;2023-07-29T07:48:29;5.30;;;2.45;;
67508;SDS011;54354;44.724;11.284;2023-07-29T07:50:55;5.63;;;2.80;;
67508;SDS011;54354;44.724;11.284;2023-07-29T07:53:21;3.47;;;2.60;;
67508;SDS011;54354;44.724;11.284;2023-07-29T07:55:46;4.93;;;3.08;;
67508;SDS011;54354;44.724;11.284;2023-07-29T07:58:12;3.15;;;2.20;;
67508;SDS011;54354;44.724;11.284;2023-07-29T08:00:38;4.72;;;2.50;;
67508;SDS011;54354;44.724;11.284;2023-07-29T08:03:03;6.13;;;2.65;;
67508;SDS011;54354;44.724;11.284;2023-07-29T08:05:29;3.70;;;2.45;;
67508;SDS011;54354;44.724;11.284;2023-07-29T08:07:54;5.57;;;3.33;;
67508;SDS011;54354;44.724;11.284;2023-07-29T08:10:21;6.85;;;2.85;;
67508;SDS011;54354;44.724;11.284;2023-07-29T08:12:46;5.55;;;3.17;;
67508;SDS011;54354;44.724;11.284;2023-07-29T08:15:12;4.47;;;2.40;;
67508;SDS011;54354;44.724;11.284;2023-07-29T08:17:37;4.50;;;2.35;;
67508;SDS011;54354;44.724;11.284;2023-07-29T08:20:03;5.20;;;2.50;;
67508;SDS011;54354;44.724;11.284;2023-07-29T08:22:28;2.75;;;2.30;;
67508;SDS011;54354;44.724;11.284;2023-07-29T08:25:02;8.25;;;2.90;;
67508;SDS011;54354;44.724;11.284;2023-07-29T08:27:29;6.13;;;2.65;;
67508;SDS011;54354;44.724;11.284;2023-07-29T08:29:54;3.65;;;2.75;;
67508;SDS011;54354;44.724;11.284;2023-07-29T08:32:20;6.20;;;2.60;;
67508;SDS011;54354;44.724;11.284;2023-07-29T08:34:46;7.03;;;2.78;;
67508;SDS011;54354;44.724;11.284;2023-07-29T08:37:11;7.82;;;2.60;;
67508;SDS011;54354;44.724;11.284;2023-07-29T08:39:37;5.22;;;2.45;;
67508;SDS011;54354;44.724;11.284;2023-07-29T08:44:40;4.63;;;2.40;;
67508;SDS011;54354;44.724;11.284;2023-07-29T08:47:07;5.28;;;2.28;;
67508;SDS011;54354;44.724;11.284;2023-07-29T08:49:32;3.38;;;2.10;;
67508;SDS011;54354;44.724;11.284;2023-07-29T08:51:59;21.52;;;2.70;;
67508;SDS011;54354;44.724;11.284;2023-07-29T08:54:26;4.75;;;2.03;;
67508;SDS011;54354;44.724;11.284;2023-07-29T08:56:51;7.65;;;2.17;;
67508;SDS011;54354;44.724;11.284;2023-07-29T08:59:17;5.00;;;1.90;;
67508;SDS011;54354;44.724;11.284;2023-07-29T09:01:44;7.80;;;2.40;;
67508;SDS011;54354;44.724;11.284;2023-07-29T09:04:10;4.53;;;2.28;;
67508;SDS011;54354;44.724;11.284;2023-07-29T09:06:36;8.10;;;2.08;;
67508;SDS011;54354;44.724;11.284;2023-07-29T09:09:07;3.67;;;2.10;;
67508;SDS011;54354;44.724;11.284;2023-07-29T09:11:33;4.75;;;2.13;;
67508;SDS011;54354;44.724;11.284;2023-07-29T09:14:00;6.40;;;2.33;;
67508;SDS011;54354;44.724;11.284;2023-07-29T09:16:26;3.33;;;1.70;;
67508;SDS011;54354;44.724;11.284;2023-07-29T09:18:51;3.30;;;2.20;;
67508;SDS011;54354;44.724;11.284;2023-07-29T09:21:17;4.25;;;2.30;;
67508;SDS011;54354;44.724;11.284;2023-07-29T09:23:48;5.63;;;2.20;;
67508;SDS011;54354;44.724;11.284;2023-07-29T09:26:21;5.82;;;2.10;;
67508;SDS011;54354;44.724;11.284;2023-07-29T09:28:51;4.22;;;2.15;;
67508;SDS011;54354;44.724;11.284;2023-07-29T09:31:24;3.63;;;2.10;;
67508;SDS011;54354;44.724;11.284;2023-07-29T09:34:01;4.45;;;1.80;;
67508;SDS011;54354;44.724;11.284;2023-07-29T09:36:32;5.50;;;2.10;;
67508;SDS011;54354;44.724;11.284;2023-07-29T09:38:59;3.28;;;2.33;;
67508;SDS011;54354;44.724;11.284;2023-07-29T09:41:28;4.50;;;1.92;;
67508;SDS011;54354;44.724;11.284;2023-07-29T09:43:59;7.95;;;2.67;;
67508;SDS011;54354;44.724;11.284;2023-07-29T09:46:32;4.70;;;2.35;;
67508;SDS011;54354;44.724;11.284;2023-07-29T09:48:59;5.07;;;2.20;;
67508;SDS011;54354;44.724;11.284;2023-07-29T09:51:25;11.25;;;3.65;;
67508;SDS011;54354;44.724;11.284;2023-07-29T09:53:50;9.48;;;3.15;;
67508;SDS011;54354;44.724;11.284;2023-07-29T09:56:23;4.30;;;2.05;;
67508;SDS011;54354;44.724;11.284;2023-07-29T09:58:51;8.82;;;3.20;;
67508;SDS011;54354;44.724;11.284;2023-07-29T10:01:17;2.50;;;1.80;;
67508;SDS011;54354;44.724;11.284;2023-07-29T10:03:43;5.30;;;2.05;;
67508;SDS011;54354;44.724;11.284;2023-07-29T10:06:09;7.18;;;3.15;;
67508;SDS011;54354;44.724;11.284;2023-07-29T10:08:36;5.38;;;2.33;;
67508;SDS011;54354;44.724;11.284;2023-07-29T10:11:05;3.75;;;2.35;;
67508;SDS011;54354;44.724;11.284;2023-07-29T10:13:32;5.05;;;1.80;;
67508;SDS011;54354;44.724;11.284;2023-07-29T10:15:58;4.80;;;2.88;;
67508;SDS011;54354;44.724;11.284;2023-07-29T10:18:27;6.05;;;3.45;;
67508;SDS011;54354;44.724;11.284;2023-07-29T10:20:53;8.07;;;2.92;;
67508;SDS011;54354;44.724;11.284;2023-07-29T10:23:21;5.68;;;2.70;;
67508;SDS011;54354;44.724;11.284;2023-07-29T10:25:53;3.83;;;1.70;;
67508;SDS011;54354;44.724;11.284;2023-07-29T10:28:23;9.05;;;2.53;;
67508;SDS011;54354;44.724;11.284;2023-07-29T10:30:51;5.88;;;2.28;;
67508;SDS011;54354;44.724;11.284;2023-07-29T10:33:17;5.28;;;2.42;;
67508;SDS011;54354;44.724;11.284;2023-07-29T10:35:43;3.42;;;1.83;;
67508;SDS011;54354;44.724;11.284;2023-07-29T10:38:11;3.75;;;2.22;;
67508;SDS011;54354;44.724;11.284;2023-07-29T10:40:47;4.63;;;2.67;;
67508;SDS011;54354;44.724;11.284;2023-07-29T10:43:19;4.70;;;2.38;;
67508;SDS011;54354;44.724;11.284;2023-07-29T10:45:50;5.55;;;2.17;;
67508;SDS011;54354;44.724;11.284;2023-07-29T10:53:52;4.22;;;2.10;;
67508;SDS011;54354;44.724;11.284;2023-07-29T10:56:26;9.05;;;2.67;;
67508;SDS011;54354;44.724;11.284;2023-07-29T10:58:55;3.83;;;1.80;;
67508;SDS011;54354;44.724;11.284;2023-07-29T11:01:29;3.73;;;2.30;;
67508;SDS011;54354;44.724;11.284;2023-07-29T11:15:04;6.28;;;2.45;;
67508;SDS011;54354;44.724;11.284;2023-07-29T11:20:09;3.17;;;1.67;;
67508;SDS011;54354;44.724;11.284;2023-07-29T11:22:36;10.63;;;2.80;;
67508;SDS011;54354;44.724;11.284;2023-07-29T11:25:02;5.72;;;2.60;;
67508;SDS011;54354;44.724;11.284;2023-07-29T11:27:28;4.65;;;1.92;;
67508;SDS011;54354;44.724;11.284;2023-07-29T11:29:57;3.30;;;1.70;;
67508;SDS011;54354;44.724;11.284;2023-07-29T11:32:24;5.28;;;2.33;;
67508;SDS011;54354;44.724;11.284;2023-07-29T11:34:50;5.18;;;2.83;;
67508;SDS011;54354;44.724;11.284;2023-07-29T11:37:16;3.72;;;2.80;;
67508;SDS011;54354;44.724;11.284;2023-07-29T11:39:42;5.03;;;2.75;;
67508;SDS011;54354;44.724;11.284;2023-07-29T11:42:12;4.93;;;2.00;;
67508;SDS011;54354;44.724;11.284;2023-07-29T11:44:41;3.45;;;2.50;;
67508;SDS011;54354;44.724;11.284;2023-07-29T11:47:10;3.20;;;2.67;;
67508;SDS011;54354;44.724;11.284;2023-07-29T11:49:40;8.05;;;1.88;;
67508;SDS011;54354;44.724;11.284;2023-07-29T11:52:07;6.20;;;2.00;;
67508;SDS011;54354;44.724;11.284;2023-07-29T11:54:37;3.20;;;2.83;;
67508;SDS011;54354;44.724;11.284;2023-07-29T11:57:07;17.27;;;3.78;;
67508;SDS011;54354;44.724;11.284;2023-07-29T11:59:34;86.43;;;8.32;;
67508;SDS011;54354;44.724;11.284;2023-07-29T12:02:01;43.53;;;4.82;;
67508;SDS011;54354;44.724;11.284;2023-07-29T12:04:30;31.35;;;4.65;;
67508;SDS011;54354;44.724;11.284;2023-07-29T12:06:56;29.55;;;3.78;;
67508;SDS011;54354;44.724;11.284;2023-07-29T12:09:22;48.25;;;5.45;;
67508;SDS011;54354;44.724;11.284;2023-07-29T12:11:48;40.05;;;4.97;;
67508;SDS011;54354;44.724;11.284;2023-07-29T12:14:16;22.65;;;3.50;;
67508;SDS011;54354;44.724;11.284;2023-07-29T12:16:48;31.63;;;4.25;;
67508;SDS011;54354;44.724;11.284;2023-07-29T12:19:14;13.95;;;3.10;;
67508;SDS011;54354;44.724;11.284;2023-07-29T12:21:41;30.70;;;4.40;;
67508;SDS011;54354;44.724;11.284;2023-07-29T12:24:07;19.10;;;4.13;;
67508;SDS011;54354;44.724;11.284;2023-07-29T12:26:33;15.80;;;3.80;;
67508;SDS011;54354;44.724;11.284;2023-07-29T12:29:10;13.88;;;3.58;;
67508;SDS011;54354;44.724;11.284;2023-07-29T12:31:37;3.65;;;2.08;;
67508;SDS011;54354;44.724;11.284;2023-07-29T12:34:03;8.88;;;2.92;;
67508;SDS011;54354;44.724;11.284;2023-07-29T12:36:47;11.68;;;3.42;;
67508;SDS011;54354;44.724;11.284;2023-07-29T12:41:48;8.20;;;3.00;;
67508;SDS011;54354;44.724;11.284;2023-07-29T12:44:17;9.10;;;3.10;;
67508;SDS011;54354;44.724;11.284;2023-07-29T12:46:43;6.50;;;2.60;;
67508;SDS011;54354;44.724;11.284;2023-07-29T12:49:09;7.78;;;3.05;;
67508;SDS011;54354;44.724;11.284;2023-07-29T12:51:35;3.88;;;2.85;;
67508;SDS011;54354;44.724;11.284;2023-07-29T12:54:02;3.95;;;2.40;;
67508;SDS011;54354;44.724;11.284;2023-07-29T12:56:29;9.65;;;3.00;;
67508;SDS011;54354;44.724;11.284;2023-07-29T12:58:59;5.55;;;2.75;;
67508;SDS011;54354;44.724;11.284;2023-07-29T13:01:25;3.30;;;2.50;;
67508;SDS011;54354;44.724;11.284;2023-07-29T13:03:52;7.50;;;2.42;;
67508;SDS011;54354;44.724;11.284;2023-07-29T13:06:19;4.70;;;2.97;;
67508;SDS011;54354;44.724;11.284;2023-07-29T13:08:44;6.03;;;2.88;;
67508;SDS011;54354;44.724;11.284;2023-07-29T13:11:11;2.83;;;2.28;;
67508;SDS011;54354;44.724;11.284;2023-07-29T13:13:39;7.05;;;2.70;;
67508;SDS011;54354;44.724;11.284;2023-07-29T13:16:05;4.25;;;2.40;;
67508;SDS011;54354;44.724;11.284;2023-07-29T13:18:31;3.42;;;2.63;;
67508;SDS011;54354;44.724;11.284;2023-07-29T13:20:57;3.63;;;2.50;;
67508;SDS011;54354;44.724;11.284;2023-07-29T13:23:23;3.75;;;2.30;;
67508;SDS011;54354;44.724;11.284;2023-07-29T13:25:49;6.18;;;2.30;;
67508;SDS011;54354;44.724;11.284;2023-07-29T13:28:16;4.05;;;2.65;;
67508;SDS011;54354;44.724;11.284;2023-07-29T13:33:10;5.45;;;2.70;;
67508;SDS011;54354;44.724;11.284;2023-07-29T13:35:36;2.83;;;1.90;;
67508;SDS011;54354;44.724;11.284;2023-07-29T13:38:01;2.65;;;2.15;;
67508;SDS011;54354;44.724;11.284;2023-07-29T13:40:27;3.38;;;2.63;;
67508;SDS011;54354;44.724;11.284;2023-07-29T13:42:53;4.65;;;2.58;;
67508;SDS011;54354;44.724;11.284;2023-07-29T13:45:19;3.22;;;2.40;;
67508;SDS011;54354;44.724;11.284;2023-07-29T13:47:45;4.55;;;1.90;;
67508;SDS011;54354;44.724;11.284;2023-07-29T13:50:10;3.17;;;2.88;;
67508;SDS011;54354;44.724;11.284;2023-07-29T13:52:37;2.85;;;2.13;;
67508;SDS011;54354;44.724;11.284;2023-07-29T13:55:04;3.30;;;2.47;;
67508;SDS011;54354;44.724;11.284;2023-07-29T13:57:31;5.20;;;2.25;;
67508;SDS011;54354;44.724;11.284;2023-07-29T13:59:57;3.38;;;2.67;;
67508;SDS011;54354;44.724;11.284;2023-07-29T14:02:23;4.43;;;2.58;;
67508;SDS011;54354;44.724;11.284;2023-07-29T14:04:49;3.38;;;2.50;;
67508;SDS011;54354;44.724;11.284;2023-07-29T14:07:15;2.85;;;2.60;;
67508;SDS011;54354;44.724;11.284;2023-07-29T14:09:40;5.25;;;2.10;;
67508;SDS011;54354;44.724;11.284;2023-07-29T14:12:08;2.33;;;2.00;;
67508;SDS011;54354;44.724;11.284;2023-07-29T14:14:37;5.57;;;1.95;;
67508;SDS011;54354;44.724;11.284;2023-07-29T14:17:03;3.40;;;2.05;;
67508;SDS011;54354;44.724;11.284;2023-07-29T14:19:29;10.85;;;2.42;;
67508;SDS011;54354;44.724;11.284;2023-07-29T14:21:56;15.57;;;2.85;;
67508;SDS011;54354;44.724;11.284;2023-07-29T15:37:05;9.95;;;2.88;;
67508;SDS011;54354;44.724;11.284;2023-07-29T15:39:31;11.50;;;3.17;;
67508;SDS011;54354;44.724;11.284;2023-07-29T15:41:58;7.30;;;2.90;;
67508;SDS011;54354;44.724;11.284;2023-07-29T15:44:23;6.03;;;2.10;;
67508;SDS011;54354;44.724;11.284;2023-07-29T15:46:49;7.13;;;2.88;;
67508;SDS011;54354;44.724;11.284;2023-07-29T15:49:17;5.03;;;2.42;;
67508;SDS011;54354;44.724;11.284;2023-07-29T15:51:42;3.50;;;2.22;;
67508;SDS011;54354;44.724;11.284;2023-07-29T15:54:08;4.05;;;2.80;;
67508;SDS011;54354;44.724;11.284;2023-07-29T15:56:33;5.20;;;2.97;;
67508;SDS011;54354;44.724;11.284;2023-07-29T15:59:01;3.10;;;2.42;;
67508;SDS011;54354;44.724;11.284;2023-07-29T16:01:28;4.57;;;3.00;;
67508;SDS011;54354;44.724;11.284;2023-07-29T16:03:54;7.63;;;3.03;;
67508;SDS011;54354;44.724;11.284;2023-07-29T16:06:20;6.07;;;2.05;;
67508;SDS011;54354;44.724;11.284;2023-07-29T16:08:46;3.28;;;2.00;;
67508;SDS011;54354;44.724;11.284;2023-07-29T16:11:11;4.68;;;2.70;;
67508;SDS011;54354;44.724;11.284;2023-07-29T16:13:37;4.05;;;2.85;;
67508;SDS011;54354;44.724;11.284;2023-07-29T16:16:02;10.02;;;3.85;;